createdAt,value
2022-11-28T00:01:35.462Z,14.68
2022-11-28T00:04:02.354Z,14.40
2022-11-28T00:06:29.141Z,12.98
2022-11-28T00:08:57.987Z,14.52
2022-11-28T00:11:24.573Z,13.27
2022-11-28T00:13:51.537Z,12.27
2022-11-28T00:16:21.430Z,13.25
2022-11-28T00:18:49.517Z,12.48
2022-11-28T00:21:16.639Z,13.20
2022-11-28T00:23:44.452Z,15.80
2022-11-28T00:26:23.335Z,14.55
2022-11-28T00:28:50.027Z,12.60
2022-11-28T00:31:20.155Z,12.98
2022-11-28T00:33:47.189Z,12.35
2022-11-28T00:36:13.924Z,12.40
2022-11-28T00:38:41.185Z,13.98
2022-11-28T00:41:09.642Z,13.45
2022-11-28T00:43:36.154Z,13.77
2022-11-28T00:46:03.416Z,14.20
2022-11-28T00:48:30.366Z,12.20
2022-11-28T00:51:08.873Z,12.70
2022-11-28T00:53:36.056Z,14.07
2022-11-28T00:56:06.750Z,14.23
2022-11-28T00:58:34.515Z,14.07
2022-11-28T01:01:06.887Z,13.13
2022-11-28T01:03:33.315Z,14.88
2022-11-28T01:05:59.684Z,17.20
2022-11-28T01:08:27.535Z,12.43
2022-11-28T01:10:53.908Z,13.18
2022-11-28T01:13:20.262Z,14.03
2022-11-28T01:15:46.900Z,14.00
2022-11-28T01:18:13.386Z,14.30
2022-11-28T01:20:39.780Z,12.45
2022-11-28T01:23:06.115Z,12.60
2022-11-28T01:25:32.947Z,12.93
2022-11-28T01:27:59.321Z,13.43
2022-11-28T01:30:25.972Z,11.07
2022-11-28T01:32:52.342Z,12.13
2022-11-28T01:35:18.960Z,15.13
2022-11-28T01:37:45.393Z,13.43
2022-11-28T01:40:14.229Z,12.70
2022-11-28T01:42:40.642Z,13.27
2022-11-28T01:45:14.243Z,12.00
2022-11-28T01:47:41.304Z,13.45
2022-11-28T01:50:08.913Z,13.70
2022-11-28T01:52:38.902Z,12.43
2022-11-28T01:55:07.033Z,12.55
2022-11-28T01:57:33.937Z,13.57
2022-11-28T02:00:07.740Z,14.13
2022-11-28T02:02:39.250Z,13.40
2022-11-28T02:05:06.829Z,15.40
2022-11-28T02:07:34.378Z,12.40
2022-11-28T02:10:03.446Z,12.00
2022-11-28T02:12:51.272Z,13.35
2022-11-28T02:15:32.380Z,14.30
2022-11-28T02:18:27.460Z,12.70
2022-11-28T02:21:23.968Z,12.95
2022-11-28T02:24:25.766Z,11.50
2022-11-28T02:27:04.204Z,13.75
2022-11-28T02:30:01.777Z,14.73
2022-11-28T02:32:46.602Z,14.88
2022-11-28T02:35:25.118Z,15.35
2022-11-28T02:37:51.403Z,16.00
2022-11-28T02:40:26.300Z,15.48
2022-11-28T02:43:09.807Z,12.60
2022-11-28T02:46:02.151Z,13.10
2022-11-28T02:48:46.958Z,12.35
2022-11-28T02:51:40.815Z,13.63
2022-11-28T02:54:11.649Z,13.02
2022-11-28T02:56:38.294Z,12.50
2022-11-28T02:59:05.277Z,12.70
2022-11-28T03:01:38.296Z,13.98
2022-11-28T03:04:35.081Z,13.50
2022-11-28T03:07:04.601Z,16.75
2022-11-28T03:10:08.296Z,14.53
2022-11-28T03:12:37.655Z,13.55
2022-11-28T03:15:07.432Z,15.07
2022-11-28T03:17:52.452Z,16.48
2022-11-28T03:20:50.878Z,12.73
2022-11-28T03:23:26.665Z,14.83
2022-11-28T03:26:07.499Z,14.05
2022-11-28T03:28:43.640Z,13.00
2022-11-28T03:31:17.867Z,13.48
2022-11-28T03:33:59.526Z,12.75
2022-11-28T03:36:30.708Z,14.90
2022-11-28T03:39:04.757Z,12.98
2022-11-28T03:41:45.076Z,12.30
2022-11-28T03:44:16.749Z,13.05
2022-11-28T03:46:47.256Z,12.75
2022-11-28T03:49:20.146Z,17.50
2022-11-28T03:51:53.333Z,14.48
2022-11-28T03:54:27.100Z,15.68
2022-11-28T03:57:12.583Z,15.13
2022-11-28T03:59:46.978Z,13.52
2022-11-28T04:02:31.517Z,14.57
2022-11-28T04:05:03.561Z,14.02
2022-11-28T04:08:07.729Z,15.32
2022-11-28T04:10:45.327Z,13.90
2022-11-28T04:13:25.890Z,14.27
2022-11-28T04:16:27.248Z,12.80
2022-11-28T04:19:18.241Z,13.25
2022-11-28T04:21:55.327Z,13.77
2022-11-28T04:24:28.353Z,15.23
2022-11-28T04:27:01.132Z,14.00
2022-11-28T04:29:32.947Z,14.40
2022-11-28T04:32:01.172Z,14.48
2022-11-28T04:34:30.499Z,14.25
2022-11-28T04:36:59.282Z,13.85
2022-11-28T04:39:28.155Z,15.82
2022-11-28T04:42:05.236Z,15.63
2022-11-28T04:45:01.135Z,14.68
2022-11-28T04:47:27.977Z,12.82
2022-11-28T04:49:54.900Z,14.35
2022-11-28T04:52:46.947Z,15.18
2022-11-28T04:55:26.660Z,16.33
2022-11-28T04:58:02.529Z,14.52
2022-11-28T05:00:29.349Z,13.90
2022-11-28T05:02:56.857Z,14.82
2022-11-28T05:05:26.346Z,15.05
2022-11-28T05:07:53.238Z,13.37
2022-11-28T05:10:20.219Z,15.25
2022-11-28T05:12:46.760Z,14.57
2022-11-28T05:15:13.250Z,15.43
2022-11-28T05:17:42.500Z,14.02
2022-11-28T05:20:09.462Z,14.67
2022-11-28T05:22:35.841Z,16.02
2022-11-28T05:25:02.249Z,15.05
2022-11-28T05:27:29.126Z,17.23
2022-11-28T05:29:55.458Z,13.77
2022-11-28T05:32:21.829Z,14.77
2022-11-28T05:34:48.193Z,14.75
2022-11-28T05:37:14.632Z,16.75
2022-11-28T05:39:41.354Z,15.23
2022-11-28T05:42:07.947Z,14.70
2022-11-28T05:44:34.290Z,14.40
2022-11-28T05:47:00.647Z,15.50
2022-11-28T05:49:28.733Z,15.13
2022-11-28T05:51:55.123Z,16.08
2022-11-28T05:54:21.472Z,13.85
2022-11-28T05:56:47.890Z,16.20
2022-11-28T05:59:14.488Z,14.68
2022-11-28T06:01:40.913Z,14.95
2022-11-28T06:04:07.370Z,13.88
2022-11-28T06:06:34.988Z,14.07
2022-11-28T06:09:01.769Z,14.60
2022-11-28T06:11:30.571Z,14.38
2022-11-28T06:13:57.060Z,15.77
2022-11-28T06:16:29.065Z,15.18
2022-11-28T06:18:58.095Z,14.65
2022-11-28T06:21:25.726Z,15.53
2022-11-28T06:23:52.126Z,15.00
2022-11-28T06:26:21.331Z,14.63
2022-11-28T06:28:48.631Z,14.63
2022-11-28T06:31:18.299Z,15.93
2022-11-28T06:33:44.953Z,14.83
2022-11-28T06:36:12.932Z,16.80
2022-11-28T06:38:39.833Z,15.02
2022-11-28T06:41:09.056Z,15.75
2022-11-28T06:43:35.752Z,17.13
2022-11-28T06:46:02.506Z,15.87
2022-11-28T06:48:28.934Z,16.55
2022-11-28T06:51:02.361Z,15.93
2022-11-28T06:53:31.577Z,16.23
2022-11-28T06:55:58.477Z,14.75
2022-11-28T06:58:24.917Z,16.17
2022-11-28T07:00:51.334Z,16.05
2022-11-28T07:03:17.776Z,14.73
2022-11-28T07:05:44.127Z,15.10
2022-11-28T07:08:10.521Z,17.92
2022-11-28T07:10:36.969Z,15.87
2022-11-28T07:13:05.619Z,13.70
2022-11-28T07:15:32.185Z,14.50
2022-11-28T07:17:58.553Z,15.57
2022-11-28T07:20:24.990Z,17.05
2022-11-28T07:22:51.359Z,14.77
2022-11-28T07:25:17.981Z,14.60
2022-11-28T07:27:44.353Z,12.80
2022-11-28T07:30:11.026Z,14.32
2022-11-28T07:32:41.083Z,13.75
2022-11-28T07:35:08.867Z,16.37
2022-11-28T07:37:35.713Z,14.65
2022-11-28T07:40:02.128Z,15.15
2022-11-28T07:42:28.558Z,14.63
2022-11-28T07:44:54.954Z,14.82
2022-11-28T07:47:21.848Z,17.43
2022-11-28T07:49:48.224Z,14.77
2022-11-28T07:52:14.672Z,13.02
2022-11-28T07:54:41.345Z,14.95
2022-11-28T07:57:12.658Z,15.45
2022-11-28T07:59:39.865Z,13.10
2022-11-28T08:02:06.991Z,14.35
2022-11-28T08:04:33.488Z,13.55
2022-11-28T08:06:59.877Z,14.30
2022-11-28T08:09:26.279Z,13.43
2022-11-28T08:11:52.671Z,14.43
2022-11-28T08:14:20.272Z,15.00
2022-11-28T08:16:46.794Z,14.60
2022-11-28T08:19:13.562Z,16.15
2022-11-28T08:21:39.985Z,15.57
2022-11-28T08:24:08.037Z,14.63
2022-11-28T08:26:35.342Z,16.15
2022-11-28T08:29:03.009Z,13.48
2022-11-28T08:31:32.582Z,14.90
2022-11-28T08:34:00.856Z,13.95
2022-11-28T08:36:29.354Z,18.33
2022-11-28T08:39:17.060Z,15.98
2022-11-28T08:41:42.779Z,13.48
2022-11-28T08:44:09.203Z,15.07
2022-11-28T08:46:36.248Z,14.65
2022-11-28T08:49:04.578Z,15.70
2022-11-28T08:51:31.351Z,15.43
2022-11-28T08:53:59.602Z,18.73
2022-11-28T08:56:26.611Z,13.85
2022-11-28T08:58:52.964Z,15.60
2022-11-28T09:01:21.990Z,17.43
2022-11-28T09:03:49.151Z,14.98
2022-11-28T09:06:16.833Z,14.93
2022-11-28T09:08:44.003Z,14.65
2022-11-28T09:11:13.258Z,13.75
2022-11-28T09:13:39.766Z,15.00
2022-11-28T09:16:07.083Z,15.43
2022-11-28T09:18:33.630Z,14.73
2022-11-28T09:21:05.800Z,15.15
2022-11-28T09:23:32.165Z,15.68
2022-11-28T09:25:58.547Z,17.70
2022-11-28T09:28:25.054Z,16.20
2022-11-28T09:31:00.072Z,17.10
2022-11-28T09:33:26.651Z,14.68
2022-11-28T09:35:55.248Z,16.83
2022-11-28T09:38:22.988Z,16.17
2022-11-28T09:40:49.743Z,15.07
2022-11-28T09:43:52.007Z,15.27
2022-11-28T09:46:28.646Z,15.18
2022-11-28T09:49:00.496Z,15.93
2022-11-28T09:51:34.651Z,15.93
2022-11-28T09:54:15.483Z,14.68
2022-11-28T09:56:44.220Z,16.20
2022-11-28T09:59:36.876Z,18.25
2022-11-28T10:02:29.343Z,15.85
2022-11-28T10:05:06.949Z,16.30
2022-11-28T10:07:56.887Z,15.25
2022-11-28T10:10:33.185Z,15.73
2022-11-28T10:13:12.269Z,15.18
2022-11-28T10:15:50.528Z,14.15
2022-11-28T10:18:48.590Z,15.80
2022-11-28T10:21:28.188Z,15.23
2022-11-28T10:24:00.153Z,16.17
2022-11-28T10:26:37.180Z,16.95
2022-11-28T10:29:31.043Z,17.67
2022-11-28T10:32:01.786Z,15.90
2022-11-28T10:34:40.569Z,16.90
2022-11-28T10:37:15.678Z,17.15
2022-11-28T10:39:44.793Z,18.10
2022-11-28T10:42:18.429Z,19.40
2022-11-28T10:44:56.731Z,18.40
2022-11-28T10:48:23.166Z,17.60
2022-11-28T10:51:08.191Z,19.20
2022-11-28T10:53:52.147Z,18.77
2022-11-28T10:56:49.357Z,20.27
2022-11-28T10:59:43.776Z,21.50
2022-11-28T11:02:33.796Z,20.65
2022-11-28T11:05:00.526Z,21.90
2022-11-28T11:07:30.653Z,26.17
2022-11-28T11:10:16.602Z,21.10
2022-11-28T11:12:44.042Z,21.73
2022-11-28T11:15:16.391Z,20.85
2022-11-28T11:17:42.999Z,23.35
2022-11-28T11:20:37.880Z,20.88
2022-11-28T11:23:17.405Z,21.92
2022-11-28T11:25:56.043Z,18.87
2022-11-28T11:28:31.436Z,18.52
2022-11-28T11:31:04.117Z,25.45
2022-11-28T11:33:34.664Z,20.73
2022-11-28T11:36:03.853Z,23.35
2022-11-28T11:38:37.802Z,21.57
2022-11-28T11:41:20.379Z,21.23
2022-11-28T11:43:46.750Z,21.92
2022-11-28T11:46:15.558Z,21.42
2022-11-28T11:48:47.371Z,23.52
2022-11-28T11:51:35.224Z,24.50
2022-11-28T11:54:13.870Z,22.67
2022-11-28T11:56:44.463Z,22.77
2022-11-28T11:59:37.046Z,22.20
2022-11-28T12:02:15.967Z,20.92
2022-11-28T12:04:53.881Z,21.13
2022-11-28T12:07:41.821Z,21.52
2022-11-28T12:10:13.279Z,21.95
2022-11-28T12:12:41.937Z,22.67
2022-11-28T12:15:16.714Z,23.67
2022-11-28T12:18:13.587Z,24.50
2022-11-28T12:20:52.073Z,21.20
2022-11-28T12:23:39.968Z,21.70
2022-11-28T12:26:20.694Z,20.77
2022-11-28T12:29:10.095Z,22.33
2022-11-28T12:32:29.830Z,21.30
2022-11-28T12:35:13.960Z,20.45
2022-11-28T12:38:22.258Z,21.63
2022-11-28T12:40:57.395Z,18.63
2022-11-28T12:43:57.838Z,20.08
2022-11-28T12:46:51.659Z,18.97
2022-11-28T12:49:21.756Z,20.15
2022-11-28T12:51:53.856Z,21.67
2022-11-28T12:55:01.055Z,22.75
2022-11-28T12:57:53.563Z,19.63
2022-11-28T13:00:21.310Z,19.67
2022-11-28T13:03:16.743Z,18.10
2022-11-28T13:06:22.055Z,23.55
2022-11-28T13:08:57.214Z,24.30
2022-11-28T13:11:29.553Z,23.35
2022-11-28T13:14:27.535Z,25.07
2022-11-28T13:16:57.501Z,26.25
2022-11-28T13:19:49.104Z,27.42
2022-11-28T13:22:20.277Z,20.90
2022-11-28T13:25:16.845Z,19.55
2022-11-28T13:28:01.269Z,19.50
2022-11-28T13:30:31.085Z,22.00
2022-11-28T13:33:20.588Z,23.85
2022-11-28T13:35:47.476Z,19.83
2022-11-28T13:38:42.541Z,18.95
2022-11-28T13:42:03.563Z,19.97
2022-11-28T13:44:37.636Z,21.70
2022-11-28T13:47:22.193Z,21.30
2022-11-28T13:49:48.829Z,21.90
2022-11-28T13:52:17.881Z,20.65
2022-11-28T13:54:52.321Z,24.40
2022-11-28T13:57:28.008Z,20.55
2022-11-28T14:00:19.561Z,19.70
2022-11-28T14:02:58.958Z,22.10
2022-11-28T14:05:38.249Z,23.73
2022-11-28T14:08:07.061Z,23.57
2022-11-28T14:10:53.606Z,22.52
2022-11-28T14:13:52.171Z,19.70
2022-11-28T14:16:24.718Z,27.30
2022-11-28T14:19:09.556Z,24.63
2022-11-28T14:21:35.850Z,23.30
2022-11-28T14:24:20.366Z,26.77
2022-11-28T14:26:47.213Z,21.23
2022-11-28T14:29:36.860Z,22.95
2022-11-28T14:34:51.500Z,24.07
2022-11-28T14:37:21.258Z,23.67
2022-11-28T14:39:49.405Z,23.75
2022-11-28T14:42:36.806Z,28.80
2022-11-28T14:45:23.348Z,26.48
2022-11-28T14:48:30.295Z,27.67
2022-11-28T14:51:01.813Z,27.80
2022-11-28T14:53:34.581Z,28.80
2022-11-28T14:56:10.368Z,27.35
2022-11-28T14:58:38.346Z,30.70
2022-11-28T15:01:11.517Z,24.70
2022-11-28T15:03:51.064Z,26.23
2022-11-28T15:06:21.766Z,26.60
2022-11-28T15:09:07.319Z,23.70
2022-11-28T15:12:24.124Z,25.80
2022-11-28T15:14:56.553Z,23.30
2022-11-28T15:17:28.632Z,22.25
2022-11-28T15:19:57.817Z,25.20
2022-11-28T15:22:37.911Z,24.25
2022-11-28T15:25:04.665Z,22.75
2022-11-28T15:27:31.018Z,24.53
2022-11-28T15:29:59.734Z,23.85
2022-11-28T15:32:28.737Z,26.20
2022-11-28T15:35:01.370Z,27.10
2022-11-28T15:37:32.194Z,24.50
2022-11-28T15:40:01.293Z,24.87
2022-11-28T15:42:33.121Z,23.30
2022-11-28T15:45:12.764Z,25.30
2022-11-28T15:47:39.950Z,25.35
2022-11-28T15:50:21.775Z,26.67
2022-11-28T15:52:55.570Z,25.43
2022-11-28T15:55:22.673Z,27.13
2022-11-28T15:57:49.136Z,26.50
2022-11-28T16:00:17.751Z,23.90
2022-11-28T16:02:45.114Z,25.17
2022-11-28T16:05:16.043Z,24.70
2022-11-28T16:07:44.255Z,31.85
2022-11-28T16:10:26.469Z,30.75
2022-11-28T16:13:02.968Z,28.50
2022-11-28T16:15:30.475Z,29.27
2022-11-28T16:17:57.023Z,28.40
2022-11-28T16:20:26.902Z,30.50
2022-11-28T16:23:04.378Z,30.67
2022-11-28T16:25:30.876Z,27.02
2022-11-28T16:27:57.615Z,33.22
2022-11-28T16:30:37.359Z,30.77
2022-11-28T16:33:40.217Z,31.00
2022-11-28T16:36:15.748Z,32.10
2022-11-28T16:38:47.214Z,32.42
2022-11-28T16:41:20.534Z,32.60
2022-11-28T16:43:55.260Z,36.57
2022-11-28T16:46:24.437Z,34.05
2022-11-28T16:48:56.469Z,32.13
2022-11-28T16:51:25.591Z,29.20
2022-11-28T16:53:59.346Z,30.88
2022-11-28T16:56:31.555Z,30.43
2022-11-28T16:59:11.232Z,33.80
2022-11-28T17:01:38.419Z,34.83
2022-11-28T17:04:05.258Z,35.13
2022-11-28T17:06:34.336Z,33.53
2022-11-28T17:09:01.570Z,35.47
2022-11-28T17:11:32.628Z,34.92
2022-11-28T17:14:02.291Z,32.42
2022-11-28T17:16:30.334Z,32.28
2022-11-28T17:18:56.755Z,32.53
2022-11-28T17:21:46.583Z,30.23
2022-11-28T17:24:21.907Z,29.80
2022-11-28T17:26:49.008Z,30.10
2022-11-28T17:29:16.461Z,29.55
2022-11-28T17:31:46.637Z,28.35
2022-11-28T17:34:14.870Z,30.57
2022-11-28T17:36:41.241Z,32.50
2022-11-28T17:39:07.582Z,31.05
2022-11-28T17:41:33.941Z,35.65
2022-11-28T17:44:00.607Z,35.97
2022-11-28T17:46:26.953Z,28.70
2022-11-28T17:48:53.391Z,38.55
2022-11-28T17:51:20.209Z,33.60
2022-11-28T17:53:46.751Z,42.28
2022-11-28T17:56:13.284Z,42.80
2022-11-28T17:58:39.711Z,48.90
2022-11-28T18:01:11.214Z,56.42
2022-11-28T18:03:37.841Z,51.78
2022-11-28T18:06:05.292Z,52.45
2022-11-28T18:08:32.257Z,44.25
2022-11-28T18:11:04.281Z,39.30
2022-11-28T18:13:30.823Z,41.42
2022-11-28T18:15:57.830Z,39.45
2022-11-28T18:18:24.314Z,36.38
2022-11-28T18:20:50.685Z,46.70
2022-11-28T18:23:17.049Z,38.97
2022-11-28T18:25:44.538Z,30.85
2022-11-28T18:28:18.434Z,30.33
2022-11-28T18:30:46.935Z,28.75
2022-11-28T18:33:14.603Z,29.67
2022-11-28T18:35:41.528Z,27.87
2022-11-28T18:38:09.000Z,26.67
2022-11-28T18:40:36.422Z,24.10
2022-11-28T18:43:03.966Z,32.67
2022-11-28T18:45:30.384Z,30.25
2022-11-28T18:48:00.175Z,28.00
2022-11-28T18:50:26.975Z,24.23
2022-11-28T18:52:53.420Z,24.90
2022-11-28T18:55:20.187Z,21.58
2022-11-28T18:57:46.555Z,22.60
2022-11-28T19:00:13.598Z,19.10
2022-11-28T19:02:40.714Z,20.45
2022-11-28T19:05:07.317Z,20.27
2022-11-28T19:07:33.770Z,22.02
2022-11-28T19:10:00.235Z,19.08
2022-11-28T19:12:29.314Z,25.00
2022-11-28T19:15:01.643Z,22.75
2022-11-28T19:17:28.823Z,25.33
2022-11-28T19:19:55.186Z,21.90
2022-11-28T19:22:22.760Z,22.35
2022-11-28T19:24:49.129Z,23.27
2022-11-28T19:27:15.486Z,22.45
2022-11-28T19:29:42.166Z,23.02
2022-11-28T19:32:08.996Z,19.67
2022-11-28T19:34:35.385Z,22.20
2022-11-28T19:37:01.777Z,24.77
2022-11-28T19:39:28.165Z,24.08
2022-11-28T19:41:54.945Z,23.63
2022-11-28T19:44:23.874Z,23.13
2022-11-28T19:46:50.828Z,26.15
2022-11-28T19:49:20.089Z,26.53
2022-11-28T19:51:47.819Z,31.25
2022-11-28T19:54:15.424Z,28.38
2022-11-28T19:56:41.941Z,28.25
2022-11-28T19:59:08.466Z,25.48
2022-11-28T20:01:34.882Z,24.87
2022-11-28T20:04:01.390Z,25.75
2022-11-28T20:06:30.990Z,27.38
2022-11-28T20:09:09.133Z,32.15
2022-11-28T20:11:36.923Z,31.15
2022-11-28T20:14:10.124Z,32.67
2022-11-28T20:16:37.277Z,32.60
2022-11-28T20:19:04.921Z,31.83
2022-11-28T20:21:32.035Z,32.92
2022-11-28T20:24:04.950Z,34.10
2022-11-28T20:26:34.921Z,36.20
2022-11-28T20:29:01.349Z,38.03
2022-11-28T20:31:30.831Z,36.20
2022-11-28T20:33:58.457Z,69.32
2022-11-28T20:36:26.731Z,69.22
2022-11-28T20:38:54.790Z,59.53
2022-11-28T20:41:23.466Z,53.83
2022-11-28T20:43:50.450Z,55.03
2022-11-28T20:46:20.465Z,50.38
2022-11-28T20:48:47.669Z,45.90
2022-11-28T20:51:20.012Z,44.47
2022-11-28T20:53:46.887Z,42.50
2022-11-28T20:56:16.238Z,43.25
2022-11-28T20:58:43.360Z,43.53
2022-11-28T21:01:20.932Z,42.42
2022-11-28T21:03:48.108Z,40.73
2022-11-28T21:06:14.529Z,40.55
2022-11-28T21:08:41.186Z,39.58
2022-11-28T21:11:30.976Z,49.17
2022-11-28T21:14:02.592Z,39.53
2022-11-28T21:16:31.358Z,45.80
2022-11-28T21:19:02.169Z,45.67
2022-11-28T21:21:31.119Z,46.60
2022-11-28T21:24:00.263Z,42.60
2022-11-28T21:26:30.457Z,43.72
2022-11-28T21:29:00.978Z,35.77
2022-11-28T21:31:30.054Z,31.88
2022-11-28T21:33:58.555Z,27.65
2022-11-28T21:36:26.877Z,27.60
2022-11-28T21:38:55.534Z,28.25
2022-11-28T21:41:23.264Z,26.50
2022-11-28T21:43:49.753Z,27.38
2022-11-28T21:46:16.266Z,26.13
2022-11-28T21:48:42.721Z,23.80
2022-11-28T21:51:16.655Z,24.20
2022-11-28T21:53:43.207Z,25.53
2022-11-28T21:56:10.424Z,26.90
2022-11-28T21:58:36.821Z,25.85
2022-11-28T22:01:06.613Z,24.13
2022-11-28T22:03:33.393Z,25.40
2022-11-28T22:06:08.743Z,24.90
2022-11-28T22:08:35.348Z,27.73
2022-11-28T22:11:11.052Z,22.10
2022-11-28T22:13:38.606Z,21.85
2022-11-28T22:16:26.512Z,19.88
2022-11-28T22:18:54.896Z,20.67
2022-11-28T22:21:51.226Z,24.05
2022-11-28T22:24:08.641Z,25.63
2022-11-28T22:26:35.029Z,30.55
2022-11-28T22:29:01.477Z,33.45
2022-11-28T22:31:28.045Z,26.40
2022-11-28T22:33:54.497Z,25.73
2022-11-28T22:36:21.285Z,25.38
2022-11-28T22:38:49.552Z,20.70
2022-11-28T22:41:21.928Z,20.45
2022-11-28T22:43:52.495Z,18.77
2022-11-28T22:46:18.961Z,18.95
2022-11-28T22:48:45.466Z,17.80
2022-11-28T22:51:14.912Z,18.20
2022-11-28T22:53:41.426Z,17.20
2022-11-28T22:56:10.172Z,17.20
2022-11-28T22:58:42.877Z,16.40
2022-11-28T23:01:12.630Z,15.20
2022-11-28T23:03:39.047Z,14.95
2022-11-28T23:06:11.833Z,13.73
2022-11-28T23:08:38.419Z,14.27
2022-11-28T23:11:10.286Z,16.95
2022-11-28T23:13:38.018Z,14.77
2022-11-28T23:16:29.535Z,15.02
2022-11-28T23:18:58.814Z,18.25
2022-11-28T23:21:26.530Z,16.37
2022-11-28T23:23:52.907Z,16.50
2022-11-28T23:26:22.027Z,16.50
2022-11-28T23:28:49.513Z,15.40
2022-11-28T23:31:19.544Z,19.48
2022-11-28T23:33:46.642Z,15.03
2022-11-28T23:36:12.991Z,16.35
2022-11-28T23:38:39.462Z,14.43
2022-11-28T23:41:05.844Z,14.18
2022-11-28T23:43:32.476Z,14.30
2022-11-28T23:45:58.900Z,14.17
2022-11-28T23:48:25.398Z,14.95
2022-11-28T23:50:51.829Z,13.73
2022-11-28T23:53:18.209Z,14.80
2022-11-28T23:55:44.595Z,14.68
2022-11-28T23:58:11.006Z,12.23
